sensor_id;sensor_type;location;lat;lon;timestamp;temperature;humidity
11965;DHT22;6042;41.326;19.826;2023-05-29T00:00:12;20.00;99.90
11965;DHT22;6042;41.326;19.826;2023-05-29T00:02:43;19.90;99.90
11965;DHT22;6042;41.326;19.826;2023-05-29T00:05:15;19.90;99.90
11965;DHT22;6042;41.326;19.826;2023-05-29T00:07:43;19.80;99.90
11965;DHT22;6042;41.326;19.826;2023-05-29T00:10:13;19.70;99.90
11965;DHT22;6042;41.326;19.826;2023-05-29T00:12:42;19.80;99.90
11965;DHT22;6042;41.326;19.826;2023-05-29T00:15:12;19.70;99.90
11965;DHT22;6042;41.326;19.826;2023-05-29T00:17:41;19.60;99.90
11965;DHT22;6042;41.326;19.826;2023-05-29T00:20:11;19.60;99.90
11965;DHT22;6042;41.326;19.826;2023-05-29T00:22:40;19.40;99.90
11965;DHT22;6042;41.326;19.826;2023-05-29T00:25:09;19.40;99.90
11965;DHT22;6042;41.326;19.826;2023-05-29T00:27:37;19.40;99.90
11965;DHT22;6042;41.326;19.826;2023-05-29T00:30:07;19.20;99.90
11965;DHT22;6042;41.326;19.826;2023-05-29T00:32:37;19.20;99.90
11965;DHT22;6042;41.326;19.826;2023-05-29T00:35:08;19.20;99.90
11965;DHT22;6042;41.326;19.826;2023-05-29T00:37:37;19.30;99.90
11965;DHT22;6042;41.326;19.826;2023-05-29T00:40:07;19.30;99.90
11965;DHT22;6042;41.326;19.826;2023-05-29T00:42:36;19.40;99.90
11965;DHT22;6042;41.326;19.826;2023-05-29T00:45:06;19.40;99.90
11965;DHT22;6042;41.326;19.826;2023-05-29T00:47:36;19.30;99.90
11965;DHT22;6042;41.326;19.826;2023-05-29T00:50:06;19.30;99.90
11965;DHT22;6042;41.326;19.826;2023-05-29T00:52:37;19.20;99.90
11965;DHT22;6042;41.326;19.826;2023-05-29T00:55:08;19.10;99.90
11965;DHT22;6042;41.326;19.826;2023-05-29T00:57:38;19.00;99.90
11965;DHT22;6042;41.326;19.826;2023-05-29T01:00:07;18.90;99.90
11965;DHT22;6042;41.326;19.826;2023-05-29T01:02:45;18.80;99.90
11965;DHT22;6042;41.326;19.826;2023-05-29T01:05:14;18.90;99.90
11965;DHT22;6042;41.326;19.826;2023-05-29T01:07:43;18.90;99.90
11965;DHT22;6042;41.326;19.826;2023-05-29T01:10:12;18.90;99.90
11965;DHT22;6042;41.326;19.826;2023-05-29T01:12:46;18.90;99.90
11965;DHT22;6042;41.326;19.826;2023-05-29T01:15:28;19.00;99.90
11965;DHT22;6042;41.326;19.826;2023-05-29T01:18:08;19.10;99.90
11965;DHT22;6042;41.326;19.826;2023-05-29T01:20:42;19.30;99.90
11965;DHT22;6042;41.326;19.826;2023-05-29T01:23:38;19.30;99.90
11965;DHT22;6042;41.326;19.826;2023-05-29T01:26:33;19.20;99.90
11965;DHT22;6042;41.326;19.826;2023-05-29T01:29:07;19.20;99.90
11965;DHT22;6042;41.326;19.826;2023-05-29T01:31:37;19.10;99.90
11965;DHT22;6042;41.326;19.826;2023-05-29T01:34:08;19.00;99.90
11965;DHT22;6042;41.326;19.826;2023-05-29T01:36:36;19.00;99.90
11965;DHT22;6042;41.326;19.826;2023-05-29T01:39:05;18.90;99.90
11965;DHT22;6042;41.326;19.826;2023-05-29T01:41:36;18.90;99.90
11965;DHT22;6042;41.326;19.826;2023-05-29T01:44:07;19.00;99.90
11965;DHT22;6042;41.326;19.826;2023-05-29T01:46:39;19.10;99.90
11965;DHT22;6042;41.326;19.826;2023-05-29T01:49:08;19.10;99.90
11965;DHT22;6042;41.326;19.826;2023-05-29T01:51:40;19.10;99.90
11965;DHT22;6042;41.326;19.826;2023-05-29T01:54:10;19.20;99.90
11965;DHT22;6042;41.326;19.826;2023-05-29T01:56:40;19.10;99.90
11965;DHT22;6042;41.326;19.826;2023-05-29T01:59:10;19.10;99.90
11965;DHT22;6042;41.326;19.826;2023-05-29T02:01:41;19.10;99.90
11965;DHT22;6042;41.326;19.826;2023-05-29T02:04:09;19.20;99.90
11965;DHT22;6042;41.326;19.826;2023-05-29T02:06:41;19.20;99.90
11965;DHT22;6042;41.326;19.826;2023-05-29T02:09:09;19.10;99.90
11965;DHT22;6042;41.326;19.826;2023-05-29T02:11:39;19.00;99.90
11965;DHT22;6042;41.326;19.826;2023-05-29T02:14:13;19.00;99.90
11965;DHT22;6042;41.326;19.826;2023-05-29T02:16:41;18.90;99.90
11965;DHT22;6042;41.326;19.826;2023-05-29T02:19:11;18.90;99.90
11965;DHT22;6042;41.326;19.826;2023-05-29T02:21:40;18.80;99.90
11965;DHT22;6042;41.326;19.826;2023-05-29T02:24:09;18.70;99.90
11965;DHT22;6042;41.326;19.826;2023-05-29T02:26:37;18.80;99.90
11965;DHT22;6042;41.326;19.826;2023-05-29T02:29:09;18.80;99.90
11965;DHT22;6042;41.326;19.826;2023-05-29T02:31:38;18.80;99.90
11965;DHT22;6042;41.326;19.826;2023-05-29T02:34:06;18.90;99.90
11965;DHT22;6042;41.326;19.826;2023-05-29T02:36:35;18.90;99.90
11965;DHT22;6042;41.326;19.826;2023-05-29T02:39:04;18.90;99.90
11965;DHT22;6042;41.326;19.826;2023-05-29T02:41:33;19.00;99.90
11965;DHT22;6042;41.326;19.826;2023-05-29T02:44:02;19.00;99.90
11965;DHT22;6042;41.326;19.826;2023-05-29T02:46:32;19.00;99.90
11965;DHT22;6042;41.326;19.826;2023-05-29T02:49:00;19.00;99.90
11965;DHT22;6042;41.326;19.826;2023-05-29T02:51:30;18.90;99.90
11965;DHT22;6042;41.326;19.826;2023-05-29T02:53:59;18.90;99.90
11965;DHT22;6042;41.326;19.826;2023-05-29T02:56:28;18.70;99.90
11965;DHT22;6042;41.326;19.826;2023-05-29T02:58:56;18.70;99.90
11965;DHT22;6042;41.326;19.826;2023-05-29T03:01:25;18.70;99.90
11965;DHT22;6042;41.326;19.826;2023-05-29T03:03:56;18.70;99.90
11965;DHT22;6042;41.326;19.826;2023-05-29T03:06:25;18.70;99.90
11965;DHT22;6042;41.326;19.826;2023-05-29T03:08:56;18.70;99.90
11965;DHT22;6042;41.326;19.826;2023-05-29T03:11:26;18.60;99.90
11965;DHT22;6042;41.326;19.826;2023-05-29T03:13:56;18.40;99.90
11965;DHT22;6042;41.326;19.826;2023-05-29T03:16:24;18.40;99.90
11965;DHT22;6042;41.326;19.826;2023-05-29T03:19:00;18.30;99.90
11965;DHT22;6042;41.326;19.826;2023-05-29T03:21:29;18.40;99.90
11965;DHT22;6042;41.326;19.826;2023-05-29T03:23:58;18.60;99.90
11965;DHT22;6042;41.326;19.826;2023-05-29T03:26:27;18.60;99.90
11965;DHT22;6042;41.326;19.826;2023-05-29T03:28:56;18.60;99.90
11965;DHT22;6042;41.326;19.826;2023-05-29T03:31:25;18.60;99.90
11965;DHT22;6042;41.326;19.826;2023-05-29T03:33:54;18.40;99.90
11965;DHT22;6042;41.326;19.826;2023-05-29T03:36:36;18.30;99.90
11965;DHT22;6042;41.326;19.826;2023-05-29T03:39:07;18.40;99.90
11965;DHT22;6042;41.326;19.826;2023-05-29T03:41:36;18.40;99.90
11965;DHT22;6042;41.326;19.826;2023-05-29T03:44:05;18.40;99.90
11965;DHT22;6042;41.326;19.826;2023-05-29T03:46:34;18.50;99.90
11965;DHT22;6042;41.326;19.826;2023-05-29T03:49:04;18.50;99.90
11965;DHT22;6042;41.326;19.826;2023-05-29T03:51:38;18.50;99.90
11965;DHT22;6042;41.326;19.826;2023-05-29T03:54:06;18.40;99.90
11965;DHT22;6042;41.326;19.826;2023-05-29T03:56:36;18.40;99.90
11965;DHT22;6042;41.326;19.826;2023-05-29T03:59:05;18.30;99.90
11965;DHT22;6042;41.326;19.826;2023-05-29T04:01:33;18.30;99.90
11965;DHT22;6042;41.326;19.826;2023-05-29T04:04:02;18.40;99.90
11965;DHT22;6042;41.326;19.826;2023-05-29T04:06:31;18.50;99.90
11965;DHT22;6042;41.326;19.826;2023-05-29T04:09:01;18.70;99.90
11965;DHT22;6042;41.326;19.826;2023-05-29T04:11:30;18.80;99.90
11965;DHT22;6042;41.326;19.826;2023-05-29T04:14:01;18.80;99.90
11965;DHT22;6042;41.326;19.826;2023-05-29T04:16:30;18.80;99.90
11965;DHT22;6042;41.326;19.826;2023-05-29T04:18:59;18.80;99.90
11965;DHT22;6042;41.326;19.826;2023-05-29T04:21:31;18.90;99.90
11965;DHT22;6042;41.326;19.826;2023-05-29T04:24:03;18.90;99.90
11965;DHT22;6042;41.326;19.826;2023-05-29T04:26:32;18.80;99.90
11965;DHT22;6042;41.326;19.826;2023-05-29T04:29:01;18.70;99.90
11965;DHT22;6042;41.326;19.826;2023-05-29T04:31:32;18.80;99.90
11965;DHT22;6042;41.326;19.826;2023-05-29T04:34:01;19.00;99.90
11965;DHT22;6042;41.326;19.826;2023-05-29T04:36:32;19.00;99.90
11965;DHT22;6042;41.326;19.826;2023-05-29T04:39:09;19.10;99.90
11965;DHT22;6042;41.326;19.826;2023-05-29T04:41:38;19.20;99.90
11965;DHT22;6042;41.326;19.826;2023-05-29T04:44:12;19.20;99.90
11965;DHT22;6042;41.326;19.826;2023-05-29T04:46:47;19.30;99.90
11965;DHT22;6042;41.326;19.826;2023-05-29T04:49:15;19.40;99.90
11965;DHT22;6042;41.326;19.826;2023-05-29T04:51:44;19.50;99.90
11965;DHT22;6042;41.326;19.826;2023-05-29T04:54:14;19.40;99.90
11965;DHT22;6042;41.326;19.826;2023-05-29T04:56:44;19.40;99.90
11965;DHT22;6042;41.326;19.826;2023-05-29T04:59:14;19.30;99.90
11965;DHT22;6042;41.326;19.826;2023-05-29T05:01:42;19.30;99.90
11965;DHT22;6042;41.326;19.826;2023-05-29T05:04:12;19.30;99.90
11965;DHT22;6042;41.326;19.826;2023-05-29T05:06:40;19.30;99.90
11965;DHT22;6042;41.326;19.826;2023-05-29T05:09:12;19.30;99.90
11965;DHT22;6042;41.326;19.826;2023-05-29T05:11:42;19.40;99.90
11965;DHT22;6042;41.326;19.826;2023-05-29T05:14:11;19.50;99.90
11965;DHT22;6042;41.326;19.826;2023-05-29T05:16:40;19.70;99.90
11965;DHT22;6042;41.326;19.826;2023-05-29T05:19:10;19.80;99.90
11965;DHT22;6042;41.326;19.826;2023-05-29T05:21:40;19.90;99.90
11965;DHT22;6042;41.326;19.826;2023-05-29T05:24:11;20.00;99.90
11965;DHT22;6042;41.326;19.826;2023-05-29T05:26:42;20.20;99.90
11965;DHT22;6042;41.326;19.826;2023-05-29T05:29:11;20.50;99.90
11965;DHT22;6042;41.326;19.826;2023-05-29T05:31:56;20.60;99.90
11965;DHT22;6042;41.326;19.826;2023-05-29T05:34:56;20.70;99.90
11965;DHT22;6042;41.326;19.826;2023-05-29T05:37:25;20.80;99.90
11965;DHT22;6042;41.326;19.826;2023-05-29T05:39:58;20.70;99.90
11965;DHT22;6042;41.326;19.826;2023-05-29T05:42:31;20.60;99.90
11965;DHT22;6042;41.326;19.826;2023-05-29T05:45:05;20.60;99.90
11965;DHT22;6042;41.326;19.826;2023-05-29T05:47:35;20.70;99.90
11965;DHT22;6042;41.326;19.826;2023-05-29T05:50:05;20.80;99.90
11965;DHT22;6042;41.326;19.826;2023-05-29T05:52:34;20.90;99.90
11965;DHT22;6042;41.326;19.826;2023-05-29T05:55:04;21.00;99.90
11965;DHT22;6042;41.326;19.826;2023-05-29T05:57:34;21.10;99.90
11965;DHT22;6042;41.326;19.826;2023-05-29T06:00:04;21.30;99.90
11965;DHT22;6042;41.326;19.826;2023-05-29T06:02:42;21.60;99.90
11965;DHT22;6042;41.326;19.826;2023-05-29T06:05:22;21.90;99.90
11965;DHT22;6042;41.326;19.826;2023-05-29T06:07:53;22.50;99.90
11965;DHT22;6042;41.326;19.826;2023-05-29T06:10:22;22.90;99.90
11965;DHT22;6042;41.326;19.826;2023-05-29T06:12:52;23.20;99.90
11965;DHT22;6042;41.326;19.826;2023-05-29T06:15:27;23.30;99.90
11965;DHT22;6042;41.326;19.826;2023-05-29T06:17:56;23.20;99.90
11965;DHT22;6042;41.326;19.826;2023-05-29T06:20:27;23.30;99.90
11965;DHT22;6042;41.326;19.826;2023-05-29T06:22:55;23.30;99.90
11965;DHT22;6042;41.326;19.826;2023-05-29T06:25:24;23.40;99.90
11965;DHT22;6042;41.326;19.826;2023-05-29T06:28:03;23.40;99.90
11965;DHT22;6042;41.326;19.826;2023-05-29T06:30:33;23.30;99.90
11965;DHT22;6042;41.326;19.826;2023-05-29T06:33:05;23.40;99.90
11965;DHT22;6042;41.326;19.826;2023-05-29T06:35:38;23.30;99.90
11965;DHT22;6042;41.326;19.826;2023-05-29T06:38:08;23.40;99.90
11965;DHT22;6042;41.326;19.826;2023-05-29T06:40:36;23.70;99.90
11965;DHT22;6042;41.326;19.826;2023-05-29T06:43:06;24.20;99.60
11965;DHT22;6042;41.326;19.826;2023-05-29T06:45:45;24.40;98.70
11965;DHT22;6042;41.326;19.826;2023-05-29T06:48:17;24.40;98.70
11965;DHT22;6042;41.326;19.826;2023-05-29T06:50:47;24.30;98.50
11965;DHT22;6042;41.326;19.826;2023-05-29T06:53:45;24.10;98.40
11965;DHT22;6042;41.326;19.826;2023-05-29T06:56:15;24.00;98.30
11965;DHT22;6042;41.326;19.826;2023-05-29T06:58:45;24.10;98.00
11965;DHT22;6042;41.326;19.826;2023-05-29T07:01:49;24.30;98.20
11965;DHT22;6042;41.326;19.826;2023-05-29T07:04:18;24.10;98.20
11965;DHT22;6042;41.326;19.826;2023-05-29T07:06:46;24.20;98.40
11965;DHT22;6042;41.326;19.826;2023-05-29T07:09:15;24.20;98.50
11965;DHT22;6042;41.326;19.826;2023-05-29T07:11:45;24.40;98.20
11965;DHT22;6042;41.326;19.826;2023-05-29T07:14:16;24.60;98.00
11965;DHT22;6042;41.326;19.826;2023-05-29T07:16:45;24.80;97.30
11965;DHT22;6042;41.326;19.826;2023-05-29T07:19:15;24.80;96.60
11965;DHT22;6042;41.326;19.826;2023-05-29T07:21:49;25.00;96.60
11965;DHT22;6042;41.326;19.826;2023-05-29T07:24:20;25.10;96.50
11965;DHT22;6042;41.326;19.826;2023-05-29T07:26:49;25.20;97.30
11965;DHT22;6042;41.326;19.826;2023-05-29T07:29:19;25.20;96.90
11965;DHT22;6042;41.326;19.826;2023-05-29T07:31:51;25.30;96.80
11965;DHT22;6042;41.326;19.826;2023-05-29T07:34:22;25.30;95.80
11965;DHT22;6042;41.326;19.826;2023-05-29T07:37:00;25.40;95.90
11965;DHT22;6042;41.326;19.826;2023-05-29T07:39:36;25.30;96.10
11965;DHT22;6042;41.326;19.826;2023-05-29T07:42:17;25.30;96.30
11965;DHT22;6042;41.326;19.826;2023-05-29T07:44:47;25.20;96.40
11965;DHT22;6042;41.326;19.826;2023-05-29T07:47:18;25.20;96.00
11965;DHT22;6042;41.326;19.826;2023-05-29T07:49:47;25.20;95.50
11965;DHT22;6042;41.326;19.826;2023-05-29T07:52:18;25.40;94.90
11965;DHT22;6042;41.326;19.826;2023-05-29T07:54:47;25.50;95.20
11965;DHT22;6042;41.326;19.826;2023-05-29T07:57:16;25.50;94.70
11965;DHT22;6042;41.326;19.826;2023-05-29T07:59:47;25.30;94.10
11965;DHT22;6042;41.326;19.826;2023-05-29T08:02:17;25.50;93.60
11965;DHT22;6042;41.326;19.826;2023-05-29T08:05:15;25.70;92.90
11965;DHT22;6042;41.326;19.826;2023-05-29T08:07:45;25.70;92.70
11965;DHT22;6042;41.326;19.826;2023-05-29T08:10:15;25.80;92.90
11965;DHT22;6042;41.326;19.826;2023-05-29T08:12:44;25.90;92.10
11965;DHT22;6042;41.326;19.826;2023-05-29T08:15:14;25.70;93.00
11965;DHT22;6042;41.326;19.826;2023-05-29T08:17:43;25.80;93.00
11965;DHT22;6042;41.326;19.826;2023-05-29T08:20:12;25.70;92.80
11965;DHT22;6042;41.326;19.826;2023-05-29T08:22:41;25.70;92.80
11965;DHT22;6042;41.326;19.826;2023-05-29T08:28:35;25.80;91.80
11965;DHT22;6042;41.326;19.826;2023-05-29T08:31:09;25.90;92.50
11965;DHT22;6042;41.326;19.826;2023-05-29T08:33:38;25.90;92.60
11965;DHT22;6042;41.326;19.826;2023-05-29T08:36:07;25.80;93.20
11965;DHT22;6042;41.326;19.826;2023-05-29T08:38:37;25.90;93.20
11965;DHT22;6042;41.326;19.826;2023-05-29T08:41:07;25.90;92.50
11965;DHT22;6042;41.326;19.826;2023-05-29T08:43:37;26.00;92.40
11965;DHT22;6042;41.326;19.826;2023-05-29T08:46:10;26.00;92.20
11965;DHT22;6042;41.326;19.826;2023-05-29T08:48:43;25.70;92.50
11965;DHT22;6042;41.326;19.826;2023-05-29T08:51:19;25.70;93.30
11965;DHT22;6042;41.326;19.826;2023-05-29T08:53:50;25.90;93.00
11965;DHT22;6042;41.326;19.826;2023-05-29T08:56:19;25.90;93.10
11965;DHT22;6042;41.326;19.826;2023-05-29T08:59:01;26.10;91.80
11965;DHT22;6042;41.326;19.826;2023-05-29T09:01:36;26.10;92.10
11965;DHT22;6042;41.326;19.826;2023-05-29T09:04:07;26.00;91.90
11965;DHT22;6042;41.326;19.826;2023-05-29T09:06:38;26.10;91.10
11965;DHT22;6042;41.326;19.826;2023-05-29T09:09:09;26.10;90.70
11965;DHT22;6042;41.326;19.826;2023-05-29T09:11:38;26.20;90.40
11965;DHT22;6042;41.326;19.826;2023-05-29T09:14:11;26.30;90.90
11965;DHT22;6042;41.326;19.826;2023-05-29T09:16:42;26.40;90.40
11965;DHT22;6042;41.326;19.826;2023-05-29T09:19:11;26.50;90.70
11965;DHT22;6042;41.326;19.826;2023-05-29T09:21:39;26.50;90.40
11965;DHT22;6042;41.326;19.826;2023-05-29T09:24:10;26.60;89.70
11965;DHT22;6042;41.326;19.826;2023-05-29T09:26:48;26.60;89.20
11965;DHT22;6042;41.326;19.826;2023-05-29T09:29:17;26.40;88.80
11965;DHT22;6042;41.326;19.826;2023-05-29T09:31:47;26.20;89.50
11965;DHT22;6042;41.326;19.826;2023-05-29T09:34:23;26.20;90.00
11965;DHT22;6042;41.326;19.826;2023-05-29T09:37:01;26.20;90.20
11965;DHT22;6042;41.326;19.826;2023-05-29T09:39:44;26.40;90.70
11965;DHT22;6042;41.326;19.826;2023-05-29T09:42:14;26.60;89.60
11965;DHT22;6042;41.326;19.826;2023-05-29T09:44:46;26.60;89.70
11965;DHT22;6042;41.326;19.826;2023-05-29T09:47:19;26.60;89.70
11965;DHT22;6042;41.326;19.826;2023-05-29T09:49:48;26.70;90.10
11965;DHT22;6042;41.326;19.826;2023-05-29T09:52:21;26.80;89.20
11965;DHT22;6042;41.326;19.826;2023-05-29T09:54:50;27.00;88.70
11965;DHT22;6042;41.326;19.826;2023-05-29T09:57:20;26.80;89.30
11965;DHT22;6042;41.326;19.826;2023-05-29T09:59:52;26.70;87.50
11965;DHT22;6042;41.326;19.826;2023-05-29T10:02:22;26.90;87.20
11965;DHT22;6042;41.326;19.826;2023-05-29T10:04:51;26.80;88.10
11965;DHT22;6042;41.326;19.826;2023-05-29T10:07:25;26.70;88.10
11965;DHT22;6042;41.326;19.826;2023-05-29T10:09:59;26.70;88.30
11965;DHT22;6042;41.326;19.826;2023-05-29T10:12:29;26.70;87.40
11965;DHT22;6042;41.326;19.826;2023-05-29T10:15:00;26.80;88.30
11965;DHT22;6042;41.326;19.826;2023-05-29T10:17:33;26.80;87.10
11965;DHT22;6042;41.326;19.826;2023-05-29T10:20:05;26.90;86.80
11965;DHT22;6042;41.326;19.826;2023-05-29T10:22:49;27.00;86.70
11965;DHT22;6042;41.326;19.826;2023-05-29T10:25:46;27.00;87.20
11965;DHT22;6042;41.326;19.826;2023-05-29T10:28:57;27.20;87.30
11965;DHT22;6042;41.326;19.826;2023-05-29T10:31:32;27.60;85.30
11965;DHT22;6042;41.326;19.826;2023-05-29T10:34:13;27.60;85.50
11965;DHT22;6042;41.326;19.826;2023-05-29T10:36:53;27.50;83.10
11965;DHT22;6042;41.326;19.826;2023-05-29T10:39:24;27.60;84.20
11965;DHT22;6042;41.326;19.826;2023-05-29T10:41:53;27.80;83.70
11965;DHT22;6042;41.326;19.826;2023-05-29T10:44:40;27.80;82.60
11965;DHT22;6042;41.326;19.826;2023-05-29T10:47:09;27.50;83.10
11965;DHT22;6042;41.326;19.826;2023-05-29T10:49:49;27.40;83.40
11965;DHT22;6042;41.326;19.826;2023-05-29T10:52:19;27.50;83.60
11965;DHT22;6042;41.326;19.826;2023-05-29T10:54:53;27.70;84.20
11965;DHT22;6042;41.326;19.826;2023-05-29T10:57:23;27.90;84.50
11965;DHT22;6042;41.326;19.826;2023-05-29T11:00:03;28.00;83.90
11965;DHT22;6042;41.326;19.826;2023-05-29T11:02:39;28.00;83.40
11965;DHT22;6042;41.326;19.826;2023-05-29T11:05:21;28.00;83.40
11965;DHT22;6042;41.326;19.826;2023-05-29T11:07:52;27.90;83.90
11965;DHT22;6042;41.326;19.826;2023-05-29T11:10:55;27.60;84.50
11965;DHT22;6042;41.326;19.826;2023-05-29T11:13:25;27.40;86.00
11965;DHT22;6042;41.326;19.826;2023-05-29T11:16:12;27.40;86.50
11965;DHT22;6042;41.326;19.826;2023-05-29T11:18:43;27.60;87.10
11965;DHT22;6042;41.326;19.826;2023-05-29T11:24:16;28.10;88.70
11965;DHT22;6042;41.326;19.826;2023-05-29T11:27:07;28.30;90.10
11965;DHT22;6042;41.326;19.826;2023-05-29T11:30:08;28.20;90.50
11965;DHT22;6042;41.326;19.826;2023-05-29T11:32:40;27.90;91.00
11965;DHT22;6042;41.326;19.826;2023-05-29T11:35:10;27.90;90.80
11965;DHT22;6042;41.326;19.826;2023-05-29T11:37:42;28.10;90.40
11965;DHT22;6042;41.326;19.826;2023-05-29T11:40:14;28.10;90.00
11965;DHT22;6042;41.326;19.826;2023-05-29T11:42:44;28.10;90.00
11965;DHT22;6042;41.326;19.826;2023-05-29T11:45:13;28.40;89.00
11965;DHT22;6042;41.326;19.826;2023-05-29T11:47:52;28.50;89.20
11965;DHT22;6042;41.326;19.826;2023-05-29T11:50:23;28.60;87.80
11965;DHT22;6042;41.326;19.826;2023-05-29T11:52:53;28.30;89.00
11965;DHT22;6042;41.326;19.826;2023-05-29T11:55:23;28.10;88.10
11965;DHT22;6042;41.326;19.826;2023-05-29T11:57:56;27.90;88.70
11965;DHT22;6042;41.326;19.826;2023-05-29T12:00:25;27.90;89.70
11965;DHT22;6042;41.326;19.826;2023-05-29T12:02:54;27.90;90.00
11965;DHT22;6042;41.326;19.826;2023-05-29T12:05:22;28.10;90.20
11965;DHT22;6042;41.326;19.826;2023-05-29T12:07:54;28.60;87.80
11965;DHT22;6042;41.326;19.826;2023-05-29T12:10:24;28.70;86.60
11965;DHT22;6042;41.326;19.826;2023-05-29T12:12:53;28.80;85.50
11965;DHT22;6042;41.326;19.826;2023-05-29T12:15:22;28.90;85.60
11965;DHT22;6042;41.326;19.826;2023-05-29T12:17:52;28.90;85.00
11965;DHT22;6042;41.326;19.826;2023-05-29T12:20:23;28.90;84.40
11965;DHT22;6042;41.326;19.826;2023-05-29T12:23:00;28.90;88.50
11965;DHT22;6042;41.326;19.826;2023-05-29T12:25:29;28.90;89.50
11965;DHT22;6042;41.326;19.826;2023-05-29T12:27:58;28.70;90.10
11965;DHT22;6042;41.326;19.826;2023-05-29T12:30:27;28.30;89.80
11965;DHT22;6042;41.326;19.826;2023-05-29T12:33:00;27.80;90.30
11965;DHT22;6042;41.326;19.826;2023-05-29T12:35:30;27.60;91.00
11965;DHT22;6042;41.326;19.826;2023-05-29T12:38:01;27.40;91.20
11965;DHT22;6042;41.326;19.826;2023-05-29T12:40:31;27.20;91.70
11965;DHT22;6042;41.326;19.826;2023-05-29T12:43:01;27.40;91.90
11965;DHT22;6042;41.326;19.826;2023-05-29T12:45:31;28.10;91.40
11965;DHT22;6042;41.326;19.826;2023-05-29T12:48:01;28.80;90.50
11965;DHT22;6042;41.326;19.826;2023-05-29T12:50:31;29.30;89.70
11965;DHT22;6042;41.326;19.826;2023-05-29T12:53:02;29.50;89.40
11965;DHT22;6042;41.326;19.826;2023-05-29T12:55:32;30.10;88.20
11965;DHT22;6042;41.326;19.826;2023-05-29T12:58:04;30.30;86.80
11965;DHT22;6042;41.326;19.826;2023-05-29T13:00:33;30.80;85.40
11965;DHT22;6042;41.326;19.826;2023-05-29T13:03:03;31.00;82.50
11965;DHT22;6042;41.326;19.826;2023-05-29T13:05:31;30.80;82.90
11965;DHT22;6042;41.326;19.826;2023-05-29T13:08:02;30.90;83.20
11965;DHT22;6042;41.326;19.826;2023-05-29T13:10:32;31.10;82.50
11965;DHT22;6042;41.326;19.826;2023-05-29T13:13:01;31.80;80.00
11965;DHT22;6042;41.326;19.826;2023-05-29T13:15:30;32.50;77.80
11965;DHT22;6042;41.326;19.826;2023-05-29T13:18:00;32.50;76.90
11965;DHT22;6042;41.326;19.826;2023-05-29T13:20:29;32.90;75.60
11965;DHT22;6042;41.326;19.826;2023-05-29T13:22:59;33.30;75.90
11965;DHT22;6042;41.326;19.826;2023-05-29T13:25:29;34.50;73.70
11965;DHT22;6042;41.326;19.826;2023-05-29T13:27:57;35.50;69.70
11965;DHT22;6042;41.326;19.826;2023-05-29T13:30:26;35.80;67.40
11965;DHT22;6042;41.326;19.826;2023-05-29T13:32:54;35.90;63.60
11965;DHT22;6042;41.326;19.826;2023-05-29T13:35:22;34.70;66.30
11965;DHT22;6042;41.326;19.826;2023-05-29T13:37:51;34.00;66.50
11965;DHT22;6042;41.326;19.826;2023-05-29T13:40:19;34.20;65.30
11965;DHT22;6042;41.326;19.826;2023-05-29T13:42:49;34.60;65.20
11965;DHT22;6042;41.326;19.826;2023-05-29T13:45:18;35.50;63.50
11965;DHT22;6042;41.326;19.826;2023-05-29T13:47:46;35.10;62.90
11965;DHT22;6042;41.326;19.826;2023-05-29T13:50:15;33.80;64.50
11965;DHT22;6042;41.326;19.826;2023-05-29T13:52:44;33.20;65.50
11965;DHT22;6042;41.326;19.826;2023-05-29T13:55:12;33.80;64.70
11965;DHT22;6042;41.326;19.826;2023-05-29T13:57:41;34.30;64.20
11965;DHT22;6042;41.326;19.826;2023-05-29T14:00:15;34.60;66.40
11965;DHT22;6042;41.326;19.826;2023-05-29T14:02:44;35.00;68.90
11965;DHT22;6042;41.326;19.826;2023-05-29T14:05:13;36.20;68.40
11965;DHT22;6042;41.326;19.826;2023-05-29T14:07:41;36.50;67.80
11965;DHT22;6042;41.326;19.826;2023-05-29T14:10:10;37.20;66.10
11965;DHT22;6042;41.326;19.826;2023-05-29T14:12:39;36.80;65.80
11965;DHT22;6042;41.326;19.826;2023-05-29T14:15:10;36.70;66.90
11965;DHT22;6042;41.326;19.826;2023-05-29T14:17:39;37.70;65.40
11965;DHT22;6042;41.326;19.826;2023-05-29T14:20:09;37.90;63.90
11965;DHT22;6042;41.326;19.826;2023-05-29T14:22:37;38.00;62.60
11965;DHT22;6042;41.326;19.826;2023-05-29T14:25:06;37.60;62.30
11965;DHT22;6042;41.326;19.826;2023-05-29T14:27:35;37.40;63.10
11965;DHT22;6042;41.326;19.826;2023-05-29T14:30:04;37.30;64.90
11965;DHT22;6042;41.326;19.826;2023-05-29T14:32:33;36.80;65.90
11965;DHT22;6042;41.326;19.826;2023-05-29T14:35:04;35.20;69.20
11965;DHT22;6042;41.326;19.826;2023-05-29T14:37:32;34.60;70.10
11965;DHT22;6042;41.326;19.826;2023-05-29T14:40:01;35.00;70.00
11965;DHT22;6042;41.326;19.826;2023-05-29T14:42:30;35.60;69.20
11965;DHT22;6042;41.326;19.826;2023-05-29T14:45:00;36.30;68.00
11965;DHT22;6042;41.326;19.826;2023-05-29T14:47:28;36.20;67.70
11965;DHT22;6042;41.326;19.826;2023-05-29T14:49:56;34.90;70.50
11965;DHT22;6042;41.326;19.826;2023-05-29T14:52:26;34.90;70.90
11965;DHT22;6042;41.326;19.826;2023-05-29T14:54:55;34.10;72.30
11965;DHT22;6042;41.326;19.826;2023-05-29T14:57:23;33.70;74.10
11965;DHT22;6042;41.326;19.826;2023-05-29T14:59:52;34.20;72.40
11965;DHT22;6042;41.326;19.826;2023-05-29T15:02:20;34.90;71.80
11965;DHT22;6042;41.326;19.826;2023-05-29T15:04:48;35.70;69.70
11965;DHT22;6042;41.326;19.826;2023-05-29T15:07:17;35.70;69.00
11965;DHT22;6042;41.326;19.826;2023-05-29T15:09:47;36.40;69.00
11965;DHT22;6042;41.326;19.826;2023-05-29T15:12:15;36.10;69.10
11965;DHT22;6042;41.326;19.826;2023-05-29T15:14:44;36.00;68.80
11965;DHT22;6042;41.326;19.826;2023-05-29T15:17:12;35.30;69.80
11965;DHT22;6042;41.326;19.826;2023-05-29T15:19:41;34.50;71.40
11965;DHT22;6042;41.326;19.826;2023-05-29T15:22:09;33.60;73.60
11965;DHT22;6042;41.326;19.826;2023-05-29T15:24:37;32.90;75.90
11965;DHT22;6042;41.326;19.826;2023-05-29T15:27:08;32.30;75.70
11965;DHT22;6042;41.326;19.826;2023-05-29T15:29:36;30.80;76.60
11965;DHT22;6042;41.326;19.826;2023-05-29T15:32:05;30.00;76.50
11965;DHT22;6042;41.326;19.826;2023-05-29T15:34:33;29.10;79.30
11965;DHT22;6042;41.326;19.826;2023-05-29T15:37:03;28.00;82.00
11965;DHT22;6042;41.326;19.826;2023-05-29T15:39:32;26.80;86.90
11965;DHT22;6042;41.326;19.826;2023-05-29T15:42:00;26.10;86.30
11965;DHT22;6042;41.326;19.826;2023-05-29T15:44:30;25.60;88.40
11965;DHT22;6042;41.326;19.826;2023-05-29T15:46:59;25.00;90.20
11965;DHT22;6042;41.326;19.826;2023-05-29T15:49:27;24.50;91.60
11965;DHT22;6042;41.326;19.826;2023-05-29T15:51:55;24.10;94.00
11965;DHT22;6042;41.326;19.826;2023-05-29T15:54:24;23.80;97.60
11965;DHT22;6042;41.326;19.826;2023-05-29T15:56:52;23.40;99.40
11965;DHT22;6042;41.326;19.826;2023-05-29T15:59:21;22.70;99.70
11965;DHT22;6042;41.326;19.826;2023-05-29T16:01:50;22.20;99.90